sensor_id;sensor_type;location;lat;lon;timestamp;temperature;humidity
24164;DHT22;12319;49.204;8.116;2023-03-01T00:01:24;1.00;64.10
24164;DHT22;12319;49.204;8.116;2023-03-01T00:03:51;1.00;64.10
24164;DHT22;12319;49.204;8.116;2023-03-01T00:06:17;1.00;64.20
24164;DHT22;12319;49.204;8.116;2023-03-01T00:08:43;0.90;64.20
24164;DHT22;12319;49.204;8.116;2023-03-01T00:11:18;0.90;64.20
24164;DHT22;12319;49.204;8.116;2023-03-01T00:13:45;0.90;64.20
24164;DHT22;12319;49.204;8.116;2023-03-01T00:16:19;0.90;64.40
24164;DHT22;12319;49.204;8.116;2023-03-01T00:18:45;0.90;64.30
24164;DHT22;12319;49.204;8.116;2023-03-01T00:21:11;0.90;64.30
24164;DHT22;12319;49.204;8.116;2023-03-01T00:23:37;0.90;64.40
24164;DHT22;12319;49.204;8.116;2023-03-01T00:26:06;0.90;64.60
24164;DHT22;12319;49.204;8.116;2023-03-01T00:28:32;0.90;64.40
24164;DHT22;12319;49.204;8.116;2023-03-01T00:31:06;1.00;64.70
24164;DHT22;12319;49.204;8.116;2023-03-01T00:33:32;1.00;64.90
24164;DHT22;12319;49.204;8.116;2023-03-01T00:35:58;1.00;64.80
24164;DHT22;12319;49.204;8.116;2023-03-01T00:38:24;0.90;64.80
24164;DHT22;12319;49.204;8.116;2023-03-01T00:40:50;0.90;64.70
24164;DHT22;12319;49.204;8.116;2023-03-01T00:43:15;0.90;64.30
24164;DHT22;12319;49.204;8.116;2023-03-01T00:45:41;0.90;64.80
24164;DHT22;12319;49.204;8.116;2023-03-01T00:48:06;0.90;64.90
24164;DHT22;12319;49.204;8.116;2023-03-01T00:50:32;0.90;64.80
24164;DHT22;12319;49.204;8.116;2023-03-01T00:52:57;0.90;64.70
24164;DHT22;12319;49.204;8.116;2023-03-01T00:55:24;0.90;65.20
24164;DHT22;12319;49.204;8.116;2023-03-01T00:57:49;0.80;65.20
24164;DHT22;12319;49.204;8.116;2023-03-01T01:00:15;0.80;65.00
24164;DHT22;12319;49.204;8.116;2023-03-01T01:02:41;0.80;65.30
24164;DHT22;12319;49.204;8.116;2023-03-01T01:05:07;0.80;65.40
24164;DHT22;12319;49.204;8.116;2023-03-01T01:07:32;0.80;65.40
24164;DHT22;12319;49.204;8.116;2023-03-01T01:09:58;0.70;65.60
24164;DHT22;12319;49.204;8.116;2023-03-01T01:12:24;0.70;65.80
24164;DHT22;12319;49.204;8.116;2023-03-01T01:14:49;0.70;65.90
24164;DHT22;12319;49.204;8.116;2023-03-01T01:17:15;0.70;65.70
24164;DHT22;12319;49.204;8.116;2023-03-01T01:19:40;0.70;65.90
24164;DHT22;12319;49.204;8.116;2023-03-01T01:22:06;0.70;66.00
24164;DHT22;12319;49.204;8.116;2023-03-01T01:24:31;0.70;65.80
24164;DHT22;12319;49.204;8.116;2023-03-01T01:26:57;0.70;65.70
24164;DHT22;12319;49.204;8.116;2023-03-01T01:29:22;0.70;66.50
24164;DHT22;12319;49.204;8.116;2023-03-01T01:31:48;0.60;65.90
24164;DHT22;12319;49.204;8.116;2023-03-01T01:34:22;0.60;66.20
24164;DHT22;12319;49.204;8.116;2023-03-01T01:36:53;0.60;66.10
24164;DHT22;12319;49.204;8.116;2023-03-01T01:39:22;0.60;66.10
24164;DHT22;12319;49.204;8.116;2023-03-01T01:41:48;0.60;66.20
24164;DHT22;12319;49.204;8.116;2023-03-01T01:44:21;0.60;66.30
24164;DHT22;12319;49.204;8.116;2023-03-01T01:49:41;0.60;66.70
24164;DHT22;12319;49.204;8.116;2023-03-01T01:52:20;0.60;66.50
24164;DHT22;12319;49.204;8.116;2023-03-01T01:54:52;0.60;66.80
24164;DHT22;12319;49.204;8.116;2023-03-01T01:57:24;0.90;67.10
24164;DHT22;12319;49.204;8.116;2023-03-01T01:59:53;0.60;66.60
24164;DHT22;12319;49.204;8.116;2023-03-01T02:02:20;0.60;66.50
24164;DHT22;12319;49.204;8.116;2023-03-01T02:04:48;0.60;66.70
24164;DHT22;12319;49.204;8.116;2023-03-01T02:07:18;0.60;66.90
24164;DHT22;12319;49.204;8.116;2023-03-01T02:09:50;0.60;66.90
24164;DHT22;12319;49.204;8.116;2023-03-01T02:12:18;0.60;67.60
24164;DHT22;12319;49.204;8.116;2023-03-01T02:14:45;0.60;66.70
24164;DHT22;12319;49.204;8.116;2023-03-01T02:17:13;0.60;66.80
24164;DHT22;12319;49.204;8.116;2023-03-01T02:22:33;0.60;67.50
24164;DHT22;12319;49.204;8.116;2023-03-01T02:30:42;0.50;67.20
24164;DHT22;12319;49.204;8.116;2023-03-01T02:33:28;0.60;67.20
24164;DHT22;12319;49.204;8.116;2023-03-01T02:36:00;0.60;67.20
24164;DHT22;12319;49.204;8.116;2023-03-01T02:38:26;0.60;67.20
24164;DHT22;12319;49.204;8.116;2023-03-01T02:40:54;0.60;67.20
24164;DHT22;12319;49.204;8.116;2023-03-01T02:43:23;0.60;67.40
24164;DHT22;12319;49.204;8.116;2023-03-01T02:45:52;0.60;67.30
24164;DHT22;12319;49.204;8.116;2023-03-01T02:48:19;0.60;67.50
24164;DHT22;12319;49.204;8.116;2023-03-01T02:50:59;0.60;67.50
24164;DHT22;12319;49.204;8.116;2023-03-01T02:53:49;0.60;67.50
24164;DHT22;12319;49.204;8.116;2023-03-01T02:56:18;0.60;67.50
24164;DHT22;12319;49.204;8.116;2023-03-01T02:58:44;0.50;67.40
24164;DHT22;12319;49.204;8.116;2023-03-01T03:01:13;0.50;67.70
24164;DHT22;12319;49.204;8.116;2023-03-01T03:03:40;0.50;67.40
24164;DHT22;12319;49.204;8.116;2023-03-01T03:06:06;0.50;67.50
24164;DHT22;12319;49.204;8.116;2023-03-01T03:08:32;0.50;67.80
24164;DHT22;12319;49.204;8.116;2023-03-01T03:10:57;0.40;67.80
24164;DHT22;12319;49.204;8.116;2023-03-01T03:13:23;0.40;67.80
24164;DHT22;12319;49.204;8.116;2023-03-01T03:15:54;0.40;67.90
24164;DHT22;12319;49.204;8.116;2023-03-01T03:18:20;0.40;68.00
24164;DHT22;12319;49.204;8.116;2023-03-01T03:20:46;0.40;67.80
24164;DHT22;12319;49.204;8.116;2023-03-01T03:23:12;0.40;68.00
24164;DHT22;12319;49.204;8.116;2023-03-01T03:25:38;0.40;68.10
24164;DHT22;12319;49.204;8.116;2023-03-01T03:28:05;0.50;67.80
24164;DHT22;12319;49.204;8.116;2023-03-01T03:30:36;0.40;67.80
24164;DHT22;12319;49.204;8.116;2023-03-01T03:33:04;0.40;67.90
24164;DHT22;12319;49.204;8.116;2023-03-01T03:35:47;0.40;67.90
24164;DHT22;12319;49.204;8.116;2023-03-01T03:38:15;0.40;68.30
24164;DHT22;12319;49.204;8.116;2023-03-01T03:40:45;0.40;67.80
24164;DHT22;12319;49.204;8.116;2023-03-01T03:43:16;0.40;68.00
24164;DHT22;12319;49.204;8.116;2023-03-01T03:45:44;0.30;68.10
24164;DHT22;12319;49.204;8.116;2023-03-01T03:48:11;0.30;68.00
24164;DHT22;12319;49.204;8.116;2023-03-01T03:50:37;0.30;68.40
24164;DHT22;12319;49.204;8.116;2023-03-01T03:53:06;0.20;68.40
24164;DHT22;12319;49.204;8.116;2023-03-01T03:55:32;0.20;68.40
24164;DHT22;12319;49.204;8.116;2023-03-01T03:58:00;0.20;68.60
24164;DHT22;12319;49.204;8.116;2023-03-01T04:00:35;0.20;68.70
24164;DHT22;12319;49.204;8.116;2023-03-01T04:03:02;0.20;68.60
24164;DHT22;12319;49.204;8.116;2023-03-01T04:05:28;0.20;68.50
24164;DHT22;12319;49.204;8.116;2023-03-01T04:07:54;0.20;68.50
24164;DHT22;12319;49.204;8.116;2023-03-01T04:10:45;0.20;68.50
24164;DHT22;12319;49.204;8.116;2023-03-01T04:13:15;0.20;68.70
24164;DHT22;12319;49.204;8.116;2023-03-01T04:15:41;0.20;68.80
24164;DHT22;12319;49.204;8.116;2023-03-01T04:18:09;0.20;68.80
24164;DHT22;12319;49.204;8.116;2023-03-01T04:20:37;0.20;68.70
24164;DHT22;12319;49.204;8.116;2023-03-01T04:23:08;0.10;68.80
24164;DHT22;12319;49.204;8.116;2023-03-01T04:25:54;0.10;68.90
24164;DHT22;12319;49.204;8.116;2023-03-01T04:28:34;0.10;69.00
24164;DHT22;12319;49.204;8.116;2023-03-01T04:31:03;0.10;69.00
24164;DHT22;12319;49.204;8.116;2023-03-01T04:33:49;0.10;69.00
24164;DHT22;12319;49.204;8.116;2023-03-01T04:36:17;0.10;69.10
24164;DHT22;12319;49.204;8.116;2023-03-01T04:38:44;0.10;69.30
24164;DHT22;12319;49.204;8.116;2023-03-01T04:41:14;0.10;69.20
24164;DHT22;12319;49.204;8.116;2023-03-01T04:43:40;0.10;69.10
24164;DHT22;12319;49.204;8.116;2023-03-01T04:46:08;0.10;69.30
24164;DHT22;12319;49.204;8.116;2023-03-01T04:48:37;0.10;69.30
24164;DHT22;12319;49.204;8.116;2023-03-01T04:51:03;0.10;69.30
24164;DHT22;12319;49.204;8.116;2023-03-01T04:53:30;0.10;69.30
24164;DHT22;12319;49.204;8.116;2023-03-01T04:55:56;0.10;69.60
24164;DHT22;12319;49.204;8.116;2023-03-01T04:58:26;0.10;69.30
24164;DHT22;12319;49.204;8.116;2023-03-01T05:00:52;0.10;69.30
24164;DHT22;12319;49.204;8.116;2023-03-01T05:03:19;0.10;69.30
24164;DHT22;12319;49.204;8.116;2023-03-01T05:05:46;0.10;69.50
24164;DHT22;12319;49.204;8.116;2023-03-01T05:08:13;0.10;69.40
24164;DHT22;12319;49.204;8.116;2023-03-01T05:10:49;0.10;69.60
24164;DHT22;12319;49.204;8.116;2023-03-01T05:13:15;0.10;69.60
24164;DHT22;12319;49.204;8.116;2023-03-01T05:15:48;0.10;69.80
24164;DHT22;12319;49.204;8.116;2023-03-01T05:18:14;0.00;69.80
24164;DHT22;12319;49.204;8.116;2023-03-01T05:20:39;0.00;69.60
24164;DHT22;12319;49.204;8.116;2023-03-01T05:23:05;0.10;69.90
24164;DHT22;12319;49.204;8.116;2023-03-01T05:25:33;0.00;69.80
24164;DHT22;12319;49.204;8.116;2023-03-01T05:28:00;0.10;70.30
24164;DHT22;12319;49.204;8.116;2023-03-01T05:30:33;0.10;70.30
24164;DHT22;12319;49.204;8.116;2023-03-01T05:32:59;0.10;70.20
24164;DHT22;12319;49.204;8.116;2023-03-01T05:35:25;0.10;70.30
24164;DHT22;12319;49.204;8.116;2023-03-01T05:37:51;0.10;70.50
24164;DHT22;12319;49.204;8.116;2023-03-01T05:40:22;0.10;70.40
24164;DHT22;12319;49.204;8.116;2023-03-01T05:42:52;0.10;70.50
24164;DHT22;12319;49.204;8.116;2023-03-01T05:45:18;0.10;70.50
24164;DHT22;12319;49.204;8.116;2023-03-01T05:47:45;0.10;70.40
24164;DHT22;12319;49.204;8.116;2023-03-01T05:50:13;0.10;70.40
24164;DHT22;12319;49.204;8.116;2023-03-01T05:52:40;0.10;70.60
24164;DHT22;12319;49.204;8.116;2023-03-01T05:55:06;0.10;70.70
24164;DHT22;12319;49.204;8.116;2023-03-01T05:57:32;0.00;70.20
24164;DHT22;12319;49.204;8.116;2023-03-01T05:59:57;0.20;70.80
24164;DHT22;12319;49.204;8.116;2023-03-01T06:02:23;0.10;70.90
24164;DHT22;12319;49.204;8.116;2023-03-01T06:04:48;0.00;71.00
24164;DHT22;12319;49.204;8.116;2023-03-01T06:07:14;0.00;70.60
24164;DHT22;12319;49.204;8.116;2023-03-01T06:09:39;0.10;70.70
24164;DHT22;12319;49.204;8.116;2023-03-01T06:12:05;0.10;70.80
24164;DHT22;12319;49.204;8.116;2023-03-01T06:14:31;0.10;70.90
24164;DHT22;12319;49.204;8.116;2023-03-01T06:16:57;0.10;70.80
24164;DHT22;12319;49.204;8.116;2023-03-01T06:19:23;0.10;70.70
24164;DHT22;12319;49.204;8.116;2023-03-01T06:21:48;0.10;70.60
24164;DHT22;12319;49.204;8.116;2023-03-01T06:24:14;0.10;70.60
24164;DHT22;12319;49.204;8.116;2023-03-01T06:26:39;0.10;70.70
24164;DHT22;12319;49.204;8.116;2023-03-01T06:29:05;0.20;70.60
24164;DHT22;12319;49.204;8.116;2023-03-01T06:31:30;0.20;70.50
24164;DHT22;12319;49.204;8.116;2023-03-01T06:33:56;0.30;70.40
24164;DHT22;12319;49.204;8.116;2023-03-01T06:36:21;0.30;70.60
24164;DHT22;12319;49.204;8.116;2023-03-01T06:38:47;0.30;70.50
24164;DHT22;12319;49.204;8.116;2023-03-01T06:41:13;0.30;70.70
24164;DHT22;12319;49.204;8.116;2023-03-01T06:43:38;0.40;70.80
24164;DHT22;12319;49.204;8.116;2023-03-01T06:46:05;0.40;70.70
24164;DHT22;12319;49.204;8.116;2023-03-01T06:48:30;0.40;70.70
24164;DHT22;12319;49.204;8.116;2023-03-01T06:50:58;0.50;70.60
24164;DHT22;12319;49.204;8.116;2023-03-01T06:53:24;0.50;70.60
24164;DHT22;12319;49.204;8.116;2023-03-01T06:55:54;0.50;71.10
24164;DHT22;12319;49.204;8.116;2023-03-01T06:58:20;0.60;71.00
24164;DHT22;12319;49.204;8.116;2023-03-01T07:00:45;0.70;71.30
24164;DHT22;12319;49.204;8.116;2023-03-01T07:03:11;0.80;71.90
24164;DHT22;12319;49.204;8.116;2023-03-01T07:05:36;1.00;71.50
24164;DHT22;12319;49.204;8.116;2023-03-01T07:08:02;1.10;71.00
24164;DHT22;12319;49.204;8.116;2023-03-01T07:10:27;1.20;70.20
24164;DHT22;12319;49.204;8.116;2023-03-01T07:12:57;1.30;70.20
24164;DHT22;12319;49.204;8.116;2023-03-01T07:15:24;1.40;70.10
24164;DHT22;12319;49.204;8.116;2023-03-01T07:17:50;1.50;70.00
24164;DHT22;12319;49.204;8.116;2023-03-01T07:20:16;1.60;69.60
24164;DHT22;12319;49.204;8.116;2023-03-01T07:22:42;1.60;69.60
24164;DHT22;12319;49.204;8.116;2023-03-01T07:25:09;1.70;69.50
24164;DHT22;12319;49.204;8.116;2023-03-01T07:27:36;1.80;69.40
24164;DHT22;12319;49.204;8.116;2023-03-01T07:30:02;1.90;69.30
24164;DHT22;12319;49.204;8.116;2023-03-01T07:32:28;1.90;69.20
24164;DHT22;12319;49.204;8.116;2023-03-01T07:34:53;2.10;69.40
24164;DHT22;12319;49.204;8.116;2023-03-01T07:37:19;2.20;69.30
24164;DHT22;12319;49.204;8.116;2023-03-01T07:39:44;2.30;69.00
24164;DHT22;12319;49.204;8.116;2023-03-01T07:42:10;2.40;68.80
24164;DHT22;12319;49.204;8.116;2023-03-01T07:44:36;2.50;68.70
24164;DHT22;12319;49.204;8.116;2023-03-01T07:47:02;2.60;68.50
24164;DHT22;12319;49.204;8.116;2023-03-01T07:49:28;2.70;68.30
24164;DHT22;12319;49.204;8.116;2023-03-01T07:51:53;2.80;68.10
24164;DHT22;12319;49.204;8.116;2023-03-01T07:54:19;2.80;67.90
24164;DHT22;12319;49.204;8.116;2023-03-01T07:56:44;2.80;67.80
24164;DHT22;12319;49.204;8.116;2023-03-01T07:59:10;2.90;67.80
24164;DHT22;12319;49.204;8.116;2023-03-01T08:01:35;3.00;67.70
24164;DHT22;12319;49.204;8.116;2023-03-01T08:04:01;3.10;67.40
24164;DHT22;12319;49.204;8.116;2023-03-01T08:06:27;3.20;67.40
24164;DHT22;12319;49.204;8.116;2023-03-01T08:08:52;3.30;67.40
24164;DHT22;12319;49.204;8.116;2023-03-01T08:11:21;3.50;67.30
24164;DHT22;12319;49.204;8.116;2023-03-01T08:13:48;3.70;67.00
24164;DHT22;12319;49.204;8.116;2023-03-01T08:16:15;4.10;67.10
24164;DHT22;12319;49.204;8.116;2023-03-01T08:18:41;5.50;68.60
24164;DHT22;12319;49.204;8.116;2023-03-01T08:21:12;7.20;67.60
24164;DHT22;12319;49.204;8.116;2023-03-01T08:23:38;8.90;64.20
24164;DHT22;12319;49.204;8.116;2023-03-01T08:26:16;10.50;59.60
24164;DHT22;12319;49.204;8.116;2023-03-01T08:28:42;11.80;56.60
24164;DHT22;12319;49.204;8.116;2023-03-01T08:33:39;13.90;53.80
24164;DHT22;12319;49.204;8.116;2023-03-01T08:36:06;14.80;53.20
24164;DHT22;12319;49.204;8.116;2023-03-01T08:38:32;15.60;51.00
24164;DHT22;12319;49.204;8.116;2023-03-01T08:41:02;16.20;52.40
24164;DHT22;12319;49.204;8.116;2023-03-01T08:43:28;16.80;50.50
24164;DHT22;12319;49.204;8.116;2023-03-01T08:45:54;17.30;48.30
24164;DHT22;12319;49.204;8.116;2023-03-01T08:48:20;17.70;48.10
24164;DHT22;12319;49.204;8.116;2023-03-01T08:50:45;18.00;48.70
24164;DHT22;12319;49.204;8.116;2023-03-01T08:53:11;18.40;45.00
24164;DHT22;12319;49.204;8.116;2023-03-01T08:55:36;18.70;47.20
24164;DHT22;12319;49.204;8.116;2023-03-01T08:58:02;19.00;45.00
24164;DHT22;12319;49.204;8.116;2023-03-01T09:00:27;19.20;45.60
24164;DHT22;12319;49.204;8.116;2023-03-01T09:02:53;19.40;43.90
24164;DHT22;12319;49.204;8.116;2023-03-01T09:05:18;19.40;41.30
24164;DHT22;12319;49.204;8.116;2023-03-01T09:07:44;19.40;42.80
24164;DHT22;12319;49.204;8.116;2023-03-01T09:10:10;19.40;43.80
24164;DHT22;12319;49.204;8.116;2023-03-01T09:12:35;19.40;42.70
24164;DHT22;12319;49.204;8.116;2023-03-01T09:15:01;19.50;43.50
24164;DHT22;12319;49.204;8.116;2023-03-01T09:17:26;19.80;44.20
24164;DHT22;12319;49.204;8.116;2023-03-01T09:19:52;20.10;44.30
24164;DHT22;12319;49.204;8.116;2023-03-01T09:22:17;20.40;41.00
24164;DHT22;12319;49.204;8.116;2023-03-01T09:24:43;20.30;41.50
24164;DHT22;12319;49.204;8.116;2023-03-01T09:27:09;20.20;41.00
24164;DHT22;12319;49.204;8.116;2023-03-01T09:29:36;20.00;41.00
24164;DHT22;12319;49.204;8.116;2023-03-01T09:32:02;19.90;39.70
24164;DHT22;12319;49.204;8.116;2023-03-01T09:34:27;19.90;39.20
24164;DHT22;12319;49.204;8.116;2023-03-01T09:36:53;19.80;39.80
24164;DHT22;12319;49.204;8.116;2023-03-01T09:39:19;19.90;39.20
24164;DHT22;12319;49.204;8.116;2023-03-01T09:42:02;20.00;39.80
24164;DHT22;12319;49.204;8.116;2023-03-01T09:44:42;20.10;40.00
24164;DHT22;12319;49.204;8.116;2023-03-01T09:47:20;19.90;37.40
24164;DHT22;12319;49.204;8.116;2023-03-01T09:52:40;18.90;36.10
24164;DHT22;12319;49.204;8.116;2023-03-01T09:55:15;18.50;36.90
24164;DHT22;12319;49.204;8.116;2023-03-01T09:57:56;18.10;36.80
24164;DHT22;12319;49.204;8.116;2023-03-01T10:11:46;14.00;37.40
24164;DHT22;12319;49.204;8.116;2023-03-01T10:14:36;12.90;38.40
24164;DHT22;12319;49.204;8.116;2023-03-01T10:19:49;11.40;41.20
24164;DHT22;12319;49.204;8.116;2023-03-01T10:22:28;10.90;41.40
24164;DHT22;12319;49.204;8.116;2023-03-01T10:24:56;10.60;42.10
24164;DHT22;12319;49.204;8.116;2023-03-01T10:32:59;9.80;44.20
24164;DHT22;12319;49.204;8.116;2023-03-01T10:35:27;9.60;44.40
24164;DHT22;12319;49.204;8.116;2023-03-01T10:38:05;9.50;44.80
24164;DHT22;12319;49.204;8.116;2023-03-01T10:40:33;9.40;45.10
24164;DHT22;12319;49.204;8.116;2023-03-01T10:43:04;9.30;45.30
24164;DHT22;12319;49.204;8.116;2023-03-01T10:45:34;9.30;45.60
24164;DHT22;12319;49.204;8.116;2023-03-01T10:48:15;9.20;45.60
24164;DHT22;12319;49.204;8.116;2023-03-01T10:50:46;9.10;45.80
24164;DHT22;12319;49.204;8.116;2023-03-01T10:53:36;9.10;46.00
24164;DHT22;12319;49.204;8.116;2023-03-01T10:58:34;8.90;46.10
24164;DHT22;12319;49.204;8.116;2023-03-01T11:03:33;8.80;46.70
24164;DHT22;12319;49.204;8.116;2023-03-01T11:08:42;8.70;47.10
24164;DHT22;12319;49.204;8.116;2023-03-01T11:11:25;8.70;47.10
24164;DHT22;12319;49.204;8.116;2023-03-01T11:13:58;8.70;47.30
24164;DHT22;12319;49.204;8.116;2023-03-01T11:16:35;8.70;47.40
24164;DHT22;12319;49.204;8.116;2023-03-01T11:21:55;8.60;47.60
24164;DHT22;12319;49.204;8.116;2023-03-01T11:27:01;8.50;47.80
24164;DHT22;12319;49.204;8.116;2023-03-01T11:29:35;8.50;48.10
24164;DHT22;12319;49.204;8.116;2023-03-01T11:32:06;8.50;48.30
24164;DHT22;12319;49.204;8.116;2023-03-01T11:40:35;8.40;48.70
24164;DHT22;12319;49.204;8.116;2023-03-01T11:43:15;8.50;48.80
24164;DHT22;12319;49.204;8.116;2023-03-01T11:54:46;8.60;48.90
24164;DHT22;12319;49.204;8.116;2023-03-01T12:08:39;8.90;49.10
24164;DHT22;12319;49.204;8.116;2023-03-01T12:16:56;9.30;49.20
24164;DHT22;12319;49.204;8.116;2023-03-01T12:22:38;9.60;48.40
24164;DHT22;12319;49.204;8.116;2023-03-01T12:25:39;9.80;48.20
24164;DHT22;12319;49.204;8.116;2023-03-01T12:33:45;10.20;46.20
24164;DHT22;12319;49.204;8.116;2023-03-01T12:45:21;10.60;46.00
24164;DHT22;12319;49.204;8.116;2023-03-01T12:50:48;11.00;45.80
24164;DHT22;12319;49.204;8.116;2023-03-01T12:53:34;11.20;45.20
24164;DHT22;12319;49.204;8.116;2023-03-01T12:56:05;11.30;43.80
24164;DHT22;12319;49.204;8.116;2023-03-01T12:58:39;11.30;44.50
24164;DHT22;12319;49.204;8.116;2023-03-01T13:09:36;11.70;44.60
24164;DHT22;12319;49.204;8.116;2023-03-01T13:12:43;11.90;45.00
24164;DHT22;12319;49.204;8.116;2023-03-01T13:17:55;11.90;44.20
24164;DHT22;12319;49.204;8.116;2023-03-01T13:20:34;11.80;45.00
24164;DHT22;12319;49.204;8.116;2023-03-01T13:26:15;12.00;44.50
24164;DHT22;12319;49.204;8.116;2023-03-01T13:28:48;12.10;44.50
24164;DHT22;12319;49.204;8.116;2023-03-01T13:47:02;12.00;43.60
24164;DHT22;12319;49.204;8.116;2023-03-01T13:52:40;11.90;44.10
24164;DHT22;12319;49.204;8.116;2023-03-01T13:55:30;11.80;44.00
24164;DHT22;12319;49.204;8.116;2023-03-01T13:57:59;11.70;44.20
24164;DHT22;12319;49.204;8.116;2023-03-01T14:00:29;11.50;44.20
24164;DHT22;12319;49.204;8.116;2023-03-01T14:05:27;11.10;44.70
24164;DHT22;12319;49.204;8.116;2023-03-01T14:07:54;10.90;44.80
24164;DHT22;12319;49.204;8.116;2023-03-01T14:10:19;10.70;44.90
24164;DHT22;12319;49.204;8.116;2023-03-01T14:15:35;10.30;45.00
24164;DHT22;12319;49.204;8.116;2023-03-01T14:21:09;10.00;45.90
24164;DHT22;12319;49.204;8.116;2023-03-01T14:23:34;9.90;47.20
24164;DHT22;12319;49.204;8.116;2023-03-01T14:26:03;9.90;47.50
24164;DHT22;12319;49.204;8.116;2023-03-01T14:28:33;9.80;47.30
24164;DHT22;12319;49.204;8.116;2023-03-01T14:31:02;9.70;47.20
24164;DHT22;12319;49.204;8.116;2023-03-01T14:33:33;9.70;47.40
24164;DHT22;12319;49.204;8.116;2023-03-01T14:36:10;9.60;47.10
24164;DHT22;12319;49.204;8.116;2023-03-01T14:38:39;9.60;47.50
24164;DHT22;12319;49.204;8.116;2023-03-01T14:41:11;9.60;47.80
24164;DHT22;12319;49.204;8.116;2023-03-01T14:43:41;9.50;47.60
24164;DHT22;12319;49.204;8.116;2023-03-01T14:46:19;9.50;47.70
24164;DHT22;12319;49.204;8.116;2023-03-01T14:48:45;9.40;47.80
24164;DHT22;12319;49.204;8.116;2023-03-01T14:51:11;9.50;48.00
24164;DHT22;12319;49.204;8.116;2023-03-01T14:53:37;9.40;47.80
24164;DHT22;12319;49.204;8.116;2023-03-01T14:56:03;9.40;48.00
24164;DHT22;12319;49.204;8.116;2023-03-01T14:58:31;9.40;47.80
24164;DHT22;12319;49.204;8.116;2023-03-01T15:01:02;9.40;48.20
24164;DHT22;12319;49.204;8.116;2023-03-01T15:03:32;9.40;48.20
24164;DHT22;12319;49.204;8.116;2023-03-01T15:06:00;9.30;47.90
24164;DHT22;12319;49.204;8.116;2023-03-01T15:08:27;9.30;48.20
24164;DHT22;12319;49.204;8.116;2023-03-01T15:13:39;9.30;48.10
24164;DHT22;12319;49.204;8.116;2023-03-01T15:16:11;9.20;48.00
24164;DHT22;12319;49.204;8.116;2023-03-01T15:18:42;9.20;48.30
24164;DHT22;12319;49.204;8.116;2023-03-01T15:21:20;9.20;48.50
24164;DHT22;12319;49.204;8.116;2023-03-01T15:23:54;9.20;48.30
24164;DHT22;12319;49.204;8.116;2023-03-01T15:26:28;9.20;48.60
24164;DHT22;12319;49.204;8.116;2023-03-01T15:28:56;9.10;48.40
24164;DHT22;12319;49.204;8.116;2023-03-01T15:31:28;9.10;48.60
24164;DHT22;12319;49.204;8.116;2023-03-01T15:34:09;9.10;48.20
24164;DHT22;12319;49.204;8.116;2023-03-01T15:36:46;9.10;48.40
24164;DHT22;12319;49.204;8.116;2023-03-01T15:39:40;9.00;48.50
24164;DHT22;12319;49.204;8.116;2023-03-01T15:44:40;9.00;48.60
24164;DHT22;12319;49.204;8.116;2023-03-01T15:47:28;9.00;48.60
24164;DHT22;12319;49.204;8.116;2023-03-01T15:49:55;9.00;48.80
24164;DHT22;12319;49.204;8.116;2023-03-01T15:52:27;9.00;48.60
24164;DHT22;12319;49.204;8.116;2023-03-01T15:55:04;8.90;48.80
24164;DHT22;12319;49.204;8.116;2023-03-01T15:57:30;8.90;48.90
24164;DHT22;12319;49.204;8.116;2023-03-01T15:59:56;8.90;49.10
24164;DHT22;12319;49.204;8.116;2023-03-01T16:02:23;8.90;49.10
24164;DHT22;12319;49.204;8.116;2023-03-01T16:04:49;8.80;49.10
24164;DHT22;12319;49.204;8.116;2023-03-01T16:07:15;8.80;49.10
24164;DHT22;12319;49.204;8.116;2023-03-01T16:09:40;8.90;49.10
24164;DHT22;12319;49.204;8.116;2023-03-01T16:12:13;8.80;49.10
24164;DHT22;12319;49.204;8.116;2023-03-01T16:14:39;8.80;49.10
24164;DHT22;12319;49.204;8.116;2023-03-01T16:17:04;8.80;49.20
24164;DHT22;12319;49.204;8.116;2023-03-01T16:19:30;8.70;49.20
24164;DHT22;12319;49.204;8.116;2023-03-01T16:21:56;8.70;49.40
24164;DHT22;12319;49.204;8.116;2023-03-01T16:24:21;8.70;49.50
24164;DHT22;12319;49.204;8.116;2023-03-01T16:26:47;8.60;49.40
24164;DHT22;12319;49.204;8.116;2023-03-01T16:29:12;8.60;49.60
24164;DHT22;12319;49.204;8.116;2023-03-01T16:31:38;8.60;49.80
24164;DHT22;12319;49.204;8.116;2023-03-01T16:34:04;8.50;49.70
24164;DHT22;12319;49.204;8.116;2023-03-01T16:36:30;8.50;49.90
24164;DHT22;12319;49.204;8.116;2023-03-01T16:38:59;8.50;50.00
24164;DHT22;12319;49.204;8.116;2023-03-01T16:41:25;8.00;49.70
24164;DHT22;12319;49.204;8.116;2023-03-01T16:43:52;8.30;50.10
24164;DHT22;12319;49.204;8.116;2023-03-01T16:46:20;8.30;50.30
24164;DHT22;12319;49.204;8.116;2023-03-01T16:48:47;8.30;50.40
24164;DHT22;12319;49.204;8.116;2023-03-01T16:51:13;8.20;50.30
24164;DHT22;12319;49.204;8.116;2023-03-01T16:53:39;8.20;50.50
24164;DHT22;12319;49.204;8.116;2023-03-01T16:56:06;8.20;50.50
24164;DHT22;12319;49.204;8.116;2023-03-01T16:58:33;8.10;50.50
24164;DHT22;12319;49.204;8.116;2023-03-01T17:01:05;8.10;50.60
24164;DHT22;12319;49.204;8.116;2023-03-01T17:03:30;8.10;50.80
24164;DHT22;12319;49.204;8.116;2023-03-01T17:05:56;8.00;50.80
24164;DHT22;12319;49.204;8.116;2023-03-01T17:08:22;7.90;50.70
24164;DHT22;12319;49.204;8.116;2023-03-01T17:10:47;7.90;50.80
24164;DHT22;12319;49.204;8.116;2023-03-01T17:13:13;7.80;50.90
24164;DHT22;12319;49.204;8.116;2023-03-01T17:15:41;7.80;51.10
24164;DHT22;12319;49.204;8.116;2023-03-01T17:18:07;7.80;51.30
24164;DHT22;12319;49.204;8.116;2023-03-01T17:20:34;7.70;51.30
24164;DHT22;12319;49.204;8.116;2023-03-01T17:22:59;7.60;51.40
24164;DHT22;12319;49.204;8.116;2023-03-01T17:25:25;7.60;51.50
24164;DHT22;12319;49.204;8.116;2023-03-01T17:27:51;7.50;51.60
24164;DHT22;12319;49.204;8.116;2023-03-01T17:30:16;7.50;51.70
24164;DHT22;12319;49.204;8.116;2023-03-01T17:32:42;7.40;51.70
24164;DHT22;12319;49.204;8.116;2023-03-01T17:35:08;7.40;51.80
24164;DHT22;12319;49.204;8.116;2023-03-01T17:37:36;7.30;51.90
24164;DHT22;12319;49.204;8.116;2023-03-01T17:40:04;7.30;52.00
24164;DHT22;12319;49.204;8.116;2023-03-01T17:42:31;7.20;52.10
24164;DHT22;12319;49.204;8.116;2023-03-01T17:44:56;7.20;52.20
24164;DHT22;12319;49.204;8.116;2023-03-01T17:47:23;7.10;52.20
24164;DHT22;12319;49.204;8.116;2023-03-01T17:49:48;7.10;52.40
24164;DHT22;12319;49.204;8.116;2023-03-01T17:52:14;7.00;52.40
24164;DHT22;12319;49.204;8.116;2023-03-01T17:54:39;6.90;52.30
24164;DHT22;12319;49.204;8.116;2023-03-01T17:57:05;6.90;52.60
24164;DHT22;12319;49.204;8.116;2023-03-01T17:59:31;6.80;52.70
24164;DHT22;12319;49.204;8.116;2023-03-01T18:01:58;6.70;52.70
24164;DHT22;12319;49.204;8.116;2023-03-01T18:04:26;6.60;52.70
24164;DHT22;12319;49.204;8.116;2023-03-01T18:06:52;6.60;52.80
24164;DHT22;12319;49.204;8.116;2023-03-01T18:09:18;6.50;52.90
24164;DHT22;12319;49.204;8.116;2023-03-01T18:11:44;6.50;53.10
24164;DHT22;12319;49.204;8.116;2023-03-01T18:14:10;6.40;53.10
24164;DHT22;12319;49.204;8.116;2023-03-01T18:16:35;6.30;53.20
24164;DHT22;12319;49.204;8.116;2023-03-01T18:19:04;6.30;53.30
24164;DHT22;12319;49.204;8.116;2023-03-01T18:21:30;6.20;53.40